sensor_id;sensor_type;location;lat;lon;timestamp;pressure;altitude;pressure_sealevel;temperature;humidity
59110;BME280;44895;47.438;18.978;2022-11-20T00:02:48;99753.25;;;1.43;100.00
59110;BME280;44895;47.438;18.978;2022-11-20T00:05:52;99744.16;;;1.44;100.00
59110;BME280;44895;47.438;18.978;2022-11-20T00:08:58;99744.66;;;1.41;100.00
59110;BME280;44895;47.438;18.978;2022-11-20T00:12:03;99756.84;;;1.49;100.00
59110;BME280;44895;47.438;18.978;2022-11-20T00:15:08;99757.31;;;1.45;100.00
59110;BME280;44895;47.438;18.978;2022-11-20T00:18:12;99759.38;;;1.26;100.00
59110;BME280;44895;47.438;18.978;2022-11-20T00:21:21;99766.06;;;1.41;100.00
59110;BME280;44895;47.438;18.978;2022-11-20T00:24:25;99776.28;;;1.15;100.00
59110;BME280;44895;47.438;18.978;2022-11-20T00:27:29;99775.31;;;1.33;100.00
59110;BME280;44895;47.438;18.978;2022-11-20T00:30:33;99768.66;;;1.36;100.00
59110;BME280;44895;47.438;18.978;2022-11-20T00:33:37;99786.56;;;1.06;100.00
59110;BME280;44895;47.438;18.978;2022-11-20T00:36:40;99802.75;;;1.00;100.00
59110;BME280;44895;47.438;18.978;2022-11-20T00:39:44;99789.53;;;0.81;100.00
59110;BME280;44895;47.438;18.978;2022-11-20T00:42:48;99789.56;;;1.10;100.00
59110;BME280;44895;47.438;18.978;2022-11-20T00:46:05;99769.44;;;1.19;100.00
59110;BME280;44895;47.438;18.978;2022-11-20T00:49:09;99761.69;;;1.06;100.00
59110;BME280;44895;47.438;18.978;2022-11-20T00:52:13;99755.38;;;1.12;100.00
59110;BME280;44895;47.438;18.978;2022-11-20T00:55:17;99760.22;;;1.27;100.00
59110;BME280;44895;47.438;18.978;2022-11-20T00:58:22;99753.22;;;1.26;100.00
59110;BME280;44895;47.438;18.978;2022-11-20T01:01:26;99747.03;;;1.25;100.00
59110;BME280;44895;47.438;18.978;2022-11-20T01:04:32;99754.53;;;1.23;100.00
59110;BME280;44895;47.438;18.978;2022-11-20T01:07:36;99764.59;;;1.04;100.00
59110;BME280;44895;47.438;18.978;2022-11-20T01:10:39;99766.53;;;1.09;100.00
59110;BME280;44895;47.438;18.978;2022-11-20T01:13:45;99764.88;;;1.20;100.00
59110;BME280;44895;47.438;18.978;2022-11-20T01:16:50;99772.81;;;1.14;100.00
59110;BME280;44895;47.438;18.978;2022-11-20T01:19:54;99775.50;;;1.14;100.00
59110;BME280;44895;47.438;18.978;2022-11-20T01:22:58;99773.81;;;1.25;100.00
59110;BME280;44895;47.438;18.978;2022-11-20T01:26:07;99773.00;;;1.25;100.00
59110;BME280;44895;47.438;18.978;2022-11-20T01:29:23;99773.06;;;1.13;100.00
59110;BME280;44895;47.438;18.978;2022-11-20T01:32:27;99773.78;;;1.37;100.00
59110;BME280;44895;47.438;18.978;2022-11-20T01:35:31;99764.41;;;1.23;100.00
59110;BME280;44895;47.438;18.978;2022-11-20T01:38:35;99761.50;;;1.24;100.00
59110;BME280;44895;47.438;18.978;2022-11-20T01:41:39;99756.63;;;1.21;100.00
59110;BME280;44895;47.438;18.978;2022-11-20T01:45:01;99751.88;;;1.11;100.00
59110;BME280;44895;47.438;18.978;2022-11-20T01:48:05;99757.09;;;1.18;100.00
59110;BME280;44895;47.438;18.978;2022-11-20T01:51:17;99746.97;;;1.20;100.00
59110;BME280;44895;47.438;18.978;2022-11-20T01:54:27;99737.00;;;1.16;100.00
59110;BME280;44895;47.438;18.978;2022-11-20T01:57:35;99740.88;;;1.08;100.00
59110;BME280;44895;47.438;18.978;2022-11-20T02:00:40;99747.38;;;1.29;100.00
59110;BME280;44895;47.438;18.978;2022-11-20T02:03:44;99743.50;;;1.37;100.00
59110;BME280;44895;47.438;18.978;2022-11-20T02:07:14;99751.25;;;1.21;100.00
59110;BME280;44895;47.438;18.978;2022-11-20T02:10:20;99758.09;;;1.29;100.00
59110;BME280;44895;47.438;18.978;2022-11-20T02:13:24;99757.56;;;1.44;100.00
59110;BME280;44895;47.438;18.978;2022-11-20T02:16:48;99746.59;;;1.28;100.00
59110;BME280;44895;47.438;18.978;2022-11-20T02:19:52;99745.13;;;1.38;100.00
59110;BME280;44895;47.438;18.978;2022-11-20T02:23:03;99766.03;;;1.24;100.00
59110;BME280;44895;47.438;18.978;2022-11-20T02:26:11;99761.63;;;1.18;100.00
59110;BME280;44895;47.438;18.978;2022-11-20T02:29:23;99749.00;;;1.30;100.00
59110;BME280;44895;47.438;18.978;2022-11-20T02:32:34;99739.88;;;1.43;100.00
59110;BME280;44895;47.438;18.978;2022-11-20T02:35:41;99747.44;;;1.46;100.00
59110;BME280;44895;47.438;18.978;2022-11-20T02:38:45;99745.53;;;1.29;100.00
59110;BME280;44895;47.438;18.978;2022-11-20T02:41:49;99750.19;;;1.51;100.00
59110;BME280;44895;47.438;18.978;2022-11-20T02:44:53;99724.63;;;1.43;100.00
59110;BME280;44895;47.438;18.978;2022-11-20T02:47:58;99740.81;;;1.37;100.00
59110;BME280;44895;47.438;18.978;2022-11-20T02:51:01;99744.84;;;1.51;100.00
59110;BME280;44895;47.438;18.978;2022-11-20T02:54:05;99742.06;;;1.46;100.00
59110;BME280;44895;47.438;18.978;2022-11-20T02:57:09;99741.94;;;1.24;100.00
59110;BME280;44895;47.438;18.978;2022-11-20T03:00:13;99722.75;;;1.44;100.00
59110;BME280;44895;47.438;18.978;2022-11-20T03:03:17;99718.41;;;1.55;100.00
59110;BME280;44895;47.438;18.978;2022-11-20T03:06:21;99713.75;;;1.50;100.00
59110;BME280;44895;47.438;18.978;2022-11-20T03:09:25;99702.88;;;1.57;100.00
59110;BME280;44895;47.438;18.978;2022-11-20T03:12:29;99711.09;;;1.50;100.00
59110;BME280;44895;47.438;18.978;2022-11-20T03:15:33;99710.28;;;1.67;100.00
59110;BME280;44895;47.438;18.978;2022-11-20T03:18:40;99716.13;;;1.63;100.00
59110;BME280;44895;47.438;18.978;2022-11-20T03:21:43;99720.84;;;1.56;100.00
59110;BME280;44895;47.438;18.978;2022-11-20T03:24:48;99740.38;;;1.57;100.00
59110;BME280;44895;47.438;18.978;2022-11-20T03:27:52;99760.56;;;1.65;100.00
59110;BME280;44895;47.438;18.978;2022-11-20T03:30:56;99747.75;;;1.67;100.00
59110;BME280;44895;47.438;18.978;2022-11-20T03:34:00;99730.00;;;1.77;100.00
59110;BME280;44895;47.438;18.978;2022-11-20T03:37:04;99723.75;;;1.55;100.00
59110;BME280;44895;47.438;18.978;2022-11-20T03:40:09;99721.31;;;1.70;100.00
59110;BME280;44895;47.438;18.978;2022-11-20T03:43:13;99728.78;;;1.68;100.00
59110;BME280;44895;47.438;18.978;2022-11-20T03:46:17;99722.78;;;1.78;100.00
59110;BME280;44895;47.438;18.978;2022-11-20T03:49:21;99721.88;;;1.89;100.00
59110;BME280;44895;47.438;18.978;2022-11-20T03:52:25;99729.69;;;1.74;100.00
59110;BME280;44895;47.438;18.978;2022-11-20T03:55:29;99731.59;;;1.78;100.00
59110;BME280;44895;47.438;18.978;2022-11-20T03:58:38;99726.69;;;1.70;100.00
59110;BME280;44895;47.438;18.978;2022-11-20T04:01:45;99718.72;;;1.75;100.00
59110;BME280;44895;47.438;18.978;2022-11-20T04:04:49;99713.63;;;1.74;100.00
59110;BME280;44895;47.438;18.978;2022-11-20T04:07:53;99711.75;;;1.74;100.00
59110;BME280;44895;47.438;18.978;2022-11-20T04:11:20;99701.44;;;1.83;100.00
59110;BME280;44895;47.438;18.978;2022-11-20T04:14:24;99684.78;;;1.81;100.00
59110;BME280;44895;47.438;18.978;2022-11-20T04:17:28;99691.16;;;1.75;100.00
59110;BME280;44895;47.438;18.978;2022-11-20T04:20:33;99676.19;;;1.79;100.00
59110;BME280;44895;47.438;18.978;2022-11-20T04:23:38;99673.84;;;1.83;100.00
59110;BME280;44895;47.438;18.978;2022-11-20T04:26:43;99675.00;;;1.53;100.00
59110;BME280;44895;47.438;18.978;2022-11-20T04:29:46;99686.91;;;1.62;100.00
59110;BME280;44895;47.438;18.978;2022-11-20T04:32:51;99680.44;;;1.58;100.00
59110;BME280;44895;47.438;18.978;2022-11-20T04:36:00;99690.81;;;1.71;100.00
59110;BME280;44895;47.438;18.978;2022-11-20T04:39:05;99689.75;;;1.55;100.00
59110;BME280;44895;47.438;18.978;2022-11-20T04:42:10;99678.47;;;1.53;100.00
59110;BME280;44895;47.438;18.978;2022-11-20T04:45:32;99678.31;;;1.43;100.00
59110;BME280;44895;47.438;18.978;2022-11-20T04:48:37;99676.44;;;1.60;100.00
59110;BME280;44895;47.438;18.978;2022-11-20T04:51:42;99663.38;;;1.64;100.00
59110;BME280;44895;47.438;18.978;2022-11-20T04:54:45;99657.22;;;1.46;100.00
59110;BME280;44895;47.438;18.978;2022-11-20T04:57:50;99649.44;;;1.45;100.00
59110;BME280;44895;47.438;18.978;2022-11-20T05:01:03;99659.72;;;1.53;100.00
59110;BME280;44895;47.438;18.978;2022-11-20T05:04:07;99670.69;;;1.35;100.00
59110;BME280;44895;47.438;18.978;2022-11-20T05:07:12;99683.03;;;1.53;100.00
59110;BME280;44895;47.438;18.978;2022-11-20T05:10:16;99673.53;;;1.45;100.00
59110;BME280;44895;47.438;18.978;2022-11-20T05:13:20;99676.84;;;1.86;100.00
59110;BME280;44895;47.438;18.978;2022-11-20T05:16:25;99673.44;;;1.74;100.00
59110;BME280;44895;47.438;18.978;2022-11-20T05:19:28;99662.59;;;1.29;100.00
59110;BME280;44895;47.438;18.978;2022-11-20T05:22:34;99666.47;;;1.39;100.00
59110;BME280;44895;47.438;18.978;2022-11-20T05:25:38;99674.25;;;1.74;100.00
59110;BME280;44895;47.438;18.978;2022-11-20T05:28:42;99649.59;;;1.55;100.00
59110;BME280;44895;47.438;18.978;2022-11-20T05:31:47;99653.28;;;1.88;100.00
59110;BME280;44895;47.438;18.978;2022-11-20T05:34:51;99643.41;;;1.89;100.00
59110;BME280;44895;47.438;18.978;2022-11-20T05:37:56;99635.28;;;1.84;100.00
59110;BME280;44895;47.438;18.978;2022-11-20T05:41:08;99639.69;;;1.73;100.00
59110;BME280;44895;47.438;18.978;2022-11-20T05:44:13;99642.38;;;1.56;100.00
59110;BME280;44895;47.438;18.978;2022-11-20T05:47:17;99644.41;;;1.49;100.00
59110;BME280;44895;47.438;18.978;2022-11-20T05:50:21;99650.78;;;1.82;100.00
59110;BME280;44895;47.438;18.978;2022-11-20T05:53:25;99664.91;;;1.94;100.00
59110;BME280;44895;47.438;18.978;2022-11-20T05:56:29;99674.25;;;1.91;100.00
59110;BME280;44895;47.438;18.978;2022-11-20T05:59:33;99663.69;;;1.85;100.00
59110;BME280;44895;47.438;18.978;2022-11-20T06:02:37;99670.34;;;1.82;100.00
59110;BME280;44895;47.438;18.978;2022-11-20T06:05:41;99678.06;;;1.78;100.00
59110;BME280;44895;47.438;18.978;2022-11-20T06:08:45;99688.53;;;1.80;100.00
59110;BME280;44895;47.438;18.978;2022-11-20T06:11:49;99673.41;;;1.91;100.00
59110;BME280;44895;47.438;18.978;2022-11-20T06:14:53;99666.69;;;1.88;100.00
59110;BME280;44895;47.438;18.978;2022-11-20T06:17:59;99669.44;;;1.93;100.00
59110;BME280;44895;47.438;18.978;2022-11-20T06:21:07;99671.38;;;1.98;100.00
59110;BME280;44895;47.438;18.978;2022-11-20T06:24:12;99673.34;;;2.03;100.00
59110;BME280;44895;47.438;18.978;2022-11-20T06:27:16;99673.19;;;1.75;100.00
59110;BME280;44895;47.438;18.978;2022-11-20T06:30:20;99677.00;;;1.79;100.00
59110;BME280;44895;47.438;18.978;2022-11-20T06:33:24;99690.47;;;1.85;100.00
59110;BME280;44895;47.438;18.978;2022-11-20T06:36:28;99695.91;;;1.90;100.00
59110;BME280;44895;47.438;18.978;2022-11-20T06:39:32;99709.06;;;1.91;100.00
59110;BME280;44895;47.438;18.978;2022-11-20T06:42:36;99697.19;;;2.04;100.00
59110;BME280;44895;47.438;18.978;2022-11-20T06:45:40;99708.69;;;2.22;100.00
59110;BME280;44895;47.438;18.978;2022-11-20T06:48:44;99704.25;;;2.10;100.00
59110;BME280;44895;47.438;18.978;2022-11-20T06:51:49;99701.19;;;2.24;100.00
59110;BME280;44895;47.438;18.978;2022-11-20T06:54:53;99694.19;;;2.40;100.00
59110;BME280;44895;47.438;18.978;2022-11-20T06:57:57;99695.03;;;2.45;100.00
59110;BME280;44895;47.438;18.978;2022-11-20T07:01:03;99687.44;;;2.37;100.00
59110;BME280;44895;47.438;18.978;2022-11-20T07:04:07;99688.69;;;2.52;100.00
59110;BME280;44895;47.438;18.978;2022-11-20T07:07:11;99680.63;;;2.74;100.00
59110;BME280;44895;47.438;18.978;2022-11-20T07:10:15;99698.97;;;2.60;100.00
59110;BME280;44895;47.438;18.978;2022-11-20T07:13:19;99703.78;;;2.58;100.00
59110;BME280;44895;47.438;18.978;2022-11-20T07:16:22;99707.66;;;2.45;100.00
59110;BME280;44895;47.438;18.978;2022-11-20T07:19:26;99712.00;;;2.73;100.00
59110;BME280;44895;47.438;18.978;2022-11-20T07:22:30;99716.03;;;2.76;100.00
59110;BME280;44895;47.438;18.978;2022-11-20T07:25:35;99715.38;;;2.64;100.00
59110;BME280;44895;47.438;18.978;2022-11-20T07:28:39;99711.41;;;2.66;100.00
59110;BME280;44895;47.438;18.978;2022-11-20T07:31:43;99716.31;;;2.74;100.00
59110;BME280;44895;47.438;18.978;2022-11-20T07:34:47;99722.28;;;2.59;100.00
59110;BME280;44895;47.438;18.978;2022-11-20T07:37:52;99717.38;;;2.51;100.00
59110;BME280;44895;47.438;18.978;2022-11-20T07:40:56;99726.59;;;2.38;100.00
59110;BME280;44895;47.438;18.978;2022-11-20T07:44:07;99728.09;;;2.51;100.00
59110;BME280;44895;47.438;18.978;2022-11-20T07:47:10;99723.06;;;2.55;100.00
59110;BME280;44895;47.438;18.978;2022-11-20T07:50:15;99731.91;;;2.55;100.00
59110;BME280;44895;47.438;18.978;2022-11-20T07:53:19;99731.91;;;2.55;100.00
59110;BME280;44895;47.438;18.978;2022-11-20T07:56:25;99731.66;;;2.79;100.00
59110;BME280;44895;47.438;18.978;2022-11-20T07:59:29;99729.97;;;2.73;100.00
59110;BME280;44895;47.438;18.978;2022-11-20T08:02:33;99723.03;;;2.77;100.00
59110;BME280;44895;47.438;18.978;2022-11-20T08:05:36;99705.03;;;3.00;100.00
59110;BME280;44895;47.438;18.978;2022-11-20T08:08:41;99702.41;;;3.05;100.00
59110;BME280;44895;47.438;18.978;2022-11-20T08:11:44;99706.97;;;3.04;100.00
59110;BME280;44895;47.438;18.978;2022-11-20T08:15:07;99704.72;;;2.96;100.00
59110;BME280;44895;47.438;18.978;2022-11-20T08:18:12;99705.75;;;2.90;100.00
59110;BME280;44895;47.438;18.978;2022-11-20T08:21:16;99693.22;;;2.73;100.00
59110;BME280;44895;47.438;18.978;2022-11-20T08:24:20;99698.97;;;3.09;100.00
59110;BME280;44895;47.438;18.978;2022-11-20T08:27:24;99703.38;;;3.53;100.00
59110;BME280;44895;47.438;18.978;2022-11-20T08:30:28;99694.34;;;3.65;100.00
59110;BME280;44895;47.438;18.978;2022-11-20T08:33:32;99699.19;;;3.63;100.00
59110;BME280;44895;47.438;18.978;2022-11-20T08:36:36;99711.59;;;3.69;100.00
59110;BME280;44895;47.438;18.978;2022-11-20T08:39:40;99721.34;;;3.48;100.00
59110;BME280;44895;47.438;18.978;2022-11-20T08:42:48;99718.66;;;3.48;100.00
59110;BME280;44895;47.438;18.978;2022-11-20T08:45:53;99710.81;;;3.73;100.00
59110;BME280;44895;47.438;18.978;2022-11-20T08:48:56;99717.91;;;3.90;100.00
59110;BME280;44895;47.438;18.978;2022-11-20T08:52:00;99733.22;;;3.89;100.00
59110;BME280;44895;47.438;18.978;2022-11-20T08:55:05;99737.50;;;3.85;100.00
59110;BME280;44895;47.438;18.978;2022-11-20T08:58:09;99744.56;;;3.97;100.00
59110;BME280;44895;47.438;18.978;2022-11-20T09:01:13;99748.09;;;4.02;100.00
59110;BME280;44895;47.438;18.978;2022-11-20T09:04:17;99746.66;;;3.89;100.00
59110;BME280;44895;47.438;18.978;2022-11-20T09:07:21;99752.50;;;3.81;100.00
59110;BME280;44895;47.438;18.978;2022-11-20T09:10:28;99747.25;;;3.97;100.00
59110;BME280;44895;47.438;18.978;2022-11-20T09:13:33;99743.34;;;3.77;100.00
59110;BME280;44895;47.438;18.978;2022-11-20T09:16:38;99747.19;;;3.86;100.00
59110;BME280;44895;47.438;18.978;2022-11-20T09:19:42;99752.50;;;3.81;100.00
59110;BME280;44895;47.438;18.978;2022-11-20T09:22:46;99751.97;;;3.79;100.00
59110;BME280;44895;47.438;18.978;2022-11-20T09:25:50;99739.72;;;3.99;100.00
59110;BME280;44895;47.438;18.978;2022-11-20T09:28:55;99747.78;;;3.99;100.00
59110;BME280;44895;47.438;18.978;2022-11-20T09:31:59;99735.75;;;4.06;100.00
59110;BME280;44895;47.438;18.978;2022-11-20T09:35:03;99742.59;;;4.24;100.00
59110;BME280;44895;47.438;18.978;2022-11-20T09:38:07;99734.56;;;4.30;100.00
59110;BME280;44895;47.438;18.978;2022-11-20T09:51:30;99724.56;;;4.20;100.00
59110;BME280;44895;47.438;18.978;2022-11-20T09:54:39;99726.44;;;4.19;100.00
59110;BME280;44895;47.438;18.978;2022-11-20T09:57:46;99722.59;;;4.10;100.00
59110;BME280;44895;47.438;18.978;2022-11-20T10:00:53;99718.16;;;4.31;100.00
59110;BME280;44895;47.438;18.978;2022-11-20T10:04:03;99719.00;;;4.42;100.00
59110;BME280;44895;47.438;18.978;2022-11-20T10:07:19;99717.47;;;4.51;100.00
59110;BME280;44895;47.438;18.978;2022-11-20T10:14:02;99690.63;;;4.72;100.00
59110;BME280;44895;47.438;18.978;2022-11-20T10:20:47;99673.53;;;5.40;100.00
59110;BME280;44895;47.438;18.978;2022-11-20T10:24:03;99667.31;;;5.76;100.00
59110;BME280;44895;47.438;18.978;2022-11-20T10:30:42;99673.25;;;5.83;100.00
59110;BME280;44895;47.438;18.978;2022-11-20T10:33:47;99675.97;;;5.78;100.00
59110;BME280;44895;47.438;18.978;2022-11-20T10:37:01;99673.00;;;5.74;100.00
59110;BME280;44895;47.438;18.978;2022-11-20T10:40:30;99663.03;;;5.64;100.00
59110;BME280;44895;47.438;18.978;2022-11-20T10:43:36;99658.41;;;5.70;100.00
59110;BME280;44895;47.438;18.978;2022-11-20T10:46:43;99651.69;;;5.78;100.00
59110;BME280;44895;47.438;18.978;2022-11-20T10:49:49;99656.22;;;5.98;100.00
59110;BME280;44895;47.438;18.978;2022-11-20T10:53:08;99654.34;;;6.09;100.00
59110;BME280;44895;47.438;18.978;2022-11-20T10:56:44;99669.72;;;5.87;100.00
59110;BME280;44895;47.438;18.978;2022-11-20T11:00:00;99674.31;;;6.02;100.00
59110;BME280;44895;47.438;18.978;2022-11-20T11:03:27;99691.00;;;5.84;100.00
59110;BME280;44895;47.438;18.978;2022-11-20T11:09:41;99685.38;;;5.85;100.00
59110;BME280;44895;47.438;18.978;2022-11-20T11:12:47;99686.19;;;5.86;100.00
59110;BME280;44895;47.438;18.978;2022-11-20T11:15:52;99685.63;;;5.79;100.00
59110;BME280;44895;47.438;18.978;2022-11-20T11:19:13;99686.75;;;5.78;100.00
59110;BME280;44895;47.438;18.978;2022-11-20T11:22:17;99694.00;;;5.82;100.00
59110;BME280;44895;47.438;18.978;2022-11-20T11:25:35;99690.47;;;6.08;100.00
59110;BME280;44895;47.438;18.978;2022-11-20T11:28:39;99687.78;;;5.97;100.00
59110;BME280;44895;47.438;18.978;2022-11-20T11:31:43;99683.19;;;5.93;100.00
59110;BME280;44895;47.438;18.978;2022-11-20T11:35:04;99684.28;;;6.07;100.00
59110;BME280;44895;47.438;18.978;2022-11-20T11:38:15;99685.63;;;5.84;100.00
59110;BME280;44895;47.438;18.978;2022-11-20T11:41:25;99684.00;;;5.93;100.00
59110;BME280;44895;47.438;18.978;2022-11-20T11:44:33;99671.66;;;5.71;100.00
59110;BME280;44895;47.438;18.978;2022-11-20T11:47:58;99671.38;;;5.78;100.00
59110;BME280;44895;47.438;18.978;2022-11-20T11:51:08;99667.03;;;5.82;100.00
59110;BME280;44895;47.438;18.978;2022-11-20T11:54:19;99654.38;;;5.83;100.00
59110;BME280;44895;47.438;18.978;2022-11-20T11:57:50;99653.31;;;5.89;100.00
59110;BME280;44895;47.438;18.978;2022-11-20T12:04:42;99663.25;;;5.99;100.00
59110;BME280;44895;47.438;18.978;2022-11-20T12:07:51;99663.75;;;6.22;100.00
59110;BME280;44895;47.438;18.978;2022-11-20T12:14:14;99660.56;;;5.99;100.00
59110;BME280;44895;47.438;18.978;2022-11-20T12:17:20;99671.34;;;5.99;100.00
59110;BME280;44895;47.438;18.978;2022-11-20T12:20:29;99665.94;;;6.04;100.00
59110;BME280;44895;47.438;18.978;2022-11-20T12:30:45;99653.53;;;5.98;100.00
59110;BME280;44895;47.438;18.978;2022-11-20T12:34:18;99646.81;;;5.85;100.00
59110;BME280;44895;47.438;18.978;2022-11-20T12:37:48;99648.16;;;6.08;100.00
59110;BME280;44895;47.438;18.978;2022-11-20T12:45:28;99657.34;;;5.86;100.00
59110;BME280;44895;47.438;18.978;2022-11-20T12:48:41;99668.91;;;5.97;100.00
59110;BME280;44895;47.438;18.978;2022-11-20T12:55:56;99671.91;;;5.85;100.00
59110;BME280;44895;47.438;18.978;2022-11-20T12:59:15;99671.06;;;5.85;100.00
59110;BME280;44895;47.438;18.978;2022-11-20T13:09:17;99662.19;;;6.00;100.00
59110;BME280;44895;47.438;18.978;2022-11-20T13:12:36;99660.03;;;5.92;100.00
59110;BME280;44895;47.438;18.978;2022-11-20T13:16:06;99666.50;;;6.01;100.00
59110;BME280;44895;47.438;18.978;2022-11-20T13:19:13;99674.59;;;5.85;100.00
59110;BME280;44895;47.438;18.978;2022-11-20T13:25:36;99660.31;;;6.00;100.00
59110;BME280;44895;47.438;18.978;2022-11-20T13:28:41;99652.19;;;5.95;100.00
59110;BME280;44895;47.438;18.978;2022-11-20T13:31:47;99643.84;;;5.97;100.00
59110;BME280;44895;47.438;18.978;2022-11-20T13:34:55;99644.38;;;6.04;100.00
59110;BME280;44895;47.438;18.978;2022-11-20T13:38:13;99624.44;;;5.95;100.00
59110;BME280;44895;47.438;18.978;2022-11-20T13:44:53;99616.91;;;5.92;100.00
59110;BME280;44895;47.438;18.978;2022-11-20T13:48:19;99621.19;;;5.93;100.00
59110;BME280;44895;47.438;18.978;2022-11-20T13:51:37;99630.94;;;5.78;100.00
59110;BME280;44895;47.438;18.978;2022-11-20T13:54:55;99624.75;;;5.62;100.00
59110;BME280;44895;47.438;18.978;2022-11-20T13:58:28;99624.50;;;5.74;100.00
59110;BME280;44895;47.438;18.978;2022-11-20T14:01:38;99623.94;;;5.77;100.00
59110;BME280;44895;47.438;18.978;2022-11-20T14:04:45;99616.44;;;5.64;100.00
59110;BME280;44895;47.438;18.978;2022-11-20T14:07:51;99612.91;;;5.68;100.00
59110;BME280;44895;47.438;18.978;2022-11-20T14:11:20;99605.13;;;5.51;100.00
59110;BME280;44895;47.438;18.978;2022-11-20T14:14:26;99615.34;;;5.39;100.00
59110;BME280;44895;47.438;18.978;2022-11-20T14:17:34;99610.25;;;5.37;100.00
59110;BME280;44895;47.438;18.978;2022-11-20T14:20:39;99618.06;;;5.44;100.00
59110;BME280;44895;47.438;18.978;2022-11-20T14:23:45;99625.06;;;5.35;100.00
59110;BME280;44895;47.438;18.978;2022-11-20T14:26:50;99615.91;;;5.46;100.00
59110;BME280;44895;47.438;18.978;2022-11-20T14:29:54;99627.75;;;5.30;100.00
59110;BME280;44895;47.438;18.978;2022-11-20T14:33:02;99637.19;;;5.22;100.00
59110;BME280;44895;47.438;18.978;2022-11-20T14:36:17;99633.41;;;5.13;100.00
59110;BME280;44895;47.438;18.978;2022-11-20T14:39:26;99640.69;;;5.17;100.00
59110;BME280;44895;47.438;18.978;2022-11-20T14:42:31;99642.28;;;5.03;100.00
59110;BME280;44895;47.438;18.978;2022-11-20T14:45:35;99655.97;;;4.96;100.00
59110;BME280;44895;47.438;18.978;2022-11-20T14:48:49;99647.63;;;4.98;100.00
59110;BME280;44895;47.438;18.978;2022-11-20T14:52:13;99653.84;;;4.93;100.00
59110;BME280;44895;47.438;18.978;2022-11-20T14:55:33;99656.44;;;4.67;100.00
59110;BME280;44895;47.438;18.978;2022-11-20T14:58:37;99666.94;;;4.64;100.00
59110;BME280;44895;47.438;18.978;2022-11-20T15:01:58;99666.63;;;4.50;100.00
59110;BME280;44895;47.438;18.978;2022-11-20T15:05:02;99667.44;;;4.50;100.00
59110;BME280;44895;47.438;18.978;2022-11-20T15:08:08;99666.38;;;4.51;100.00
59110;BME280;44895;47.438;18.978;2022-11-20T15:11:27;99664.41;;;4.31;100.00
59110;BME280;44895;47.438;18.978;2022-11-20T15:14:35;99669.50;;;4.33;100.00
59110;BME280;44895;47.438;18.978;2022-11-20T15:17:40;99664.38;;;4.26;100.00
59110;BME280;44895;47.438;18.978;2022-11-20T15:20:45;99674.19;;;4.05;100.00
59110;BME280;44895;47.438;18.978;2022-11-20T15:23:50;99665.56;;;3.98;100.00
59110;BME280;44895;47.438;18.978;2022-11-20T15:26:55;99667.66;;;3.85;100.00
59110;BME280;44895;47.438;18.978;2022-11-20T15:30:00;99674.38;;;3.50;100.00
59110;BME280;44895;47.438;18.978;2022-11-20T15:33:08;99669.03;;;3.55;100.00
59110;BME280;44895;47.438;18.978;2022-11-20T15:36:12;99678.97;;;3.22;100.00
59110;BME280;44895;47.438;18.978;2022-11-20T15:39:16;99662.22;;;3.10;100.00
59110;BME280;44895;47.438;18.978;2022-11-20T15:42:22;99671.88;;;3.11;100.00
59110;BME280;44895;47.438;18.978;2022-11-20T15:45:28;99668.44;;;2.88;100.00
59110;BME280;44895;47.438;18.978;2022-11-20T15:48:39;99675.47;;;2.94;100.00
59110;BME280;44895;47.438;18.978;2022-11-20T15:51:47;99683.44;;;2.84;100.00
59110;BME280;44895;47.438;18.978;2022-11-20T15:54:52;99686.91;;;2.85;100.00
59110;BME280;44895;47.438;18.978;2022-11-20T15:57:57;99674.44;;;2.73;100.00
59110;BME280;44895;47.438;18.978;2022-11-20T16:01:02;99672.44;;;2.58;100.00
59110;BME280;44895;47.438;18.978;2022-11-20T16:04:11;99667.91;;;2.42;100.00
59110;BME280;44895;47.438;18.978;2022-11-20T16:07:16;99673.91;;;2.49;100.00
59110;BME280;44895;47.438;18.978;2022-11-20T16:10:21;99676.97;;;2.36;100.00
59110;BME280;44895;47.438;18.978;2022-11-20T16:13:25;99677.66;;;2.26;100.00
59110;BME280;44895;47.438;18.978;2022-11-20T16:16:47;99683.41;;;2.18;100.00
59110;BME280;44895;47.438;18.978;2022-11-20T16:19:51;99674.00;;;2.15;100.00
59110;BME280;44895;47.438;18.978;2022-11-20T16:22:55;99682.50;;;2.07;100.00
59110;BME280;44895;47.438;18.978;2022-11-20T16:26:08;99670.84;;;2.18;100.00
59110;BME280;44895;47.438;18.978;2022-11-20T16:29:13;99679.16;;;2.39;100.00
59110;BME280;44895;47.438;18.978;2022-11-20T16:32:17;99675.81;;;2.32;100.00
59110;BME280;44895;47.438;18.978;2022-11-20T16:35:21;99679.31;;;2.10;100.00
59110;BME280;44895;47.438;18.978;2022-11-20T16:38:24;99677.31;;;2.00;100.00
59110;BME280;44895;47.438;18.978;2022-11-20T16:41:31;99668.09;;;2.13;100.00
59110;BME280;44895;47.438;18.978;2022-11-20T16:44:35;99678.19;;;2.06;100.00
59110;BME280;44895;47.438;18.978;2022-11-20T16:47:39;99669.88;;;1.85;100.00
59110;BME280;44895;47.438;18.978;2022-11-20T16:50:52;99680.00;;;1.83;100.00
59110;BME280;44895;47.438;18.978;2022-11-20T16:53:56;99677.06;;;2.02;100.00
59110;BME280;44895;47.438;18.978;2022-11-20T16:57:00;99669.56;;;2.04;100.00
59110;BME280;44895;47.438;18.978;2022-11-20T17:00:05;99668.25;;;1.84;100.00
59110;BME280;44895;47.438;18.978;2022-11-20T17:03:09;99656.81;;;1.89;100.00
59110;BME280;44895;47.438;18.978;2022-11-20T17:06:19;99654.31;;;1.65;100.00
59110;BME280;44895;47.438;18.978;2022-11-20T17:09:24;99649.22;;;1.63;100.00
59110;BME280;44895;47.438;18.978;2022-11-20T17:12:27;99643.44;;;1.55;100.00
59110;BME280;44895;47.438;18.978;2022-11-20T17:15:31;99645.63;;;1.41;100.00
59110;BME280;44895;47.438;18.978;2022-11-20T17:18:35;99633.56;;;1.38;100.00
59110;BME280;44895;47.438;18.978;2022-11-20T17:21:39;99630.88;;;1.38;100.00